sensor_id;sensor_type;location;lat;lon;timestamp;P1;durP1;ratioP1;P2;durP2;ratioP2
48522;SDS011;34315;50.150;11.070;2024-02-23T00:03:47;1.05;;;0.70;;
48522;SDS011;34315;50.150;11.070;2024-02-23T00:08:48;3.17;;;0.80;;
48522;SDS011;34315;50.150;11.070;2024-02-23T00:13:49;1.08;;;0.70;;
48522;SDS011;34315;50.150;11.070;2024-02-23T00:18:50;1.15;;;0.60;;
48522;SDS011;34315;50.150;11.070;2024-02-23T00:23:51;1.42;;;0.50;;
48522;SDS011;34315;50.150;11.070;2024-02-23T00:28:52;1.35;;;0.40;;
48522;SDS011;34315;50.150;11.070;2024-02-23T00:33:53;0.40;;;0.40;;
48522;SDS011;34315;50.150;11.070;2024-02-23T00:38:55;1.02;;;0.50;;
48522;SDS011;34315;50.150;11.070;2024-02-23T00:43:56;0.40;;;0.40;;
48522;SDS011;34315;50.150;11.070;2024-02-23T00:48:57;0.70;;;0.52;;
48522;SDS011;34315;50.150;11.070;2024-02-23T00:53:58;2.20;;;0.60;;
48522;SDS011;34315;50.150;11.070;2024-02-23T00:58:59;2.38;;;0.73;;
48522;SDS011;34315;50.150;11.070;2024-02-23T01:04:00;0.68;;;0.50;;
48522;SDS011;34315;50.150;11.070;2024-02-23T01:09:01;1.35;;;0.65;;
48522;SDS011;34315;50.150;11.070;2024-02-23T01:14:02;0.80;;;0.50;;
48522;SDS011;34315;50.150;11.070;2024-02-23T01:19:03;1.33;;;0.50;;
48522;SDS011;34315;50.150;11.070;2024-02-23T01:24:04;3.75;;;0.90;;
48522;SDS011;34315;50.150;11.070;2024-02-23T01:29:06;1.42;;;0.80;;
48522;SDS011;34315;50.150;11.070;2024-02-23T01:34:07;1.30;;;0.52;;
48522;SDS011;34315;50.150;11.070;2024-02-23T01:39:08;0.47;;;0.30;;
48522;SDS011;34315;50.150;11.070;2024-02-23T01:44:10;0.43;;;0.28;;
48522;SDS011;34315;50.150;11.070;2024-02-23T01:49:11;0.28;;;0.28;;
48522;SDS011;34315;50.150;11.070;2024-02-23T01:54:13;2.42;;;0.45;;
48522;SDS011;34315;50.150;11.070;2024-02-23T01:59:14;1.02;;;0.55;;
48522;SDS011;34315;50.150;11.070;2024-02-23T02:04:15;1.17;;;0.47;;
48522;SDS011;34315;50.150;11.070;2024-02-23T02:09:16;2.58;;;0.93;;
48522;SDS011;34315;50.150;11.070;2024-02-23T02:14:17;1.60;;;0.68;;
48522;SDS011;34315;50.150;11.070;2024-02-23T02:19:19;2.78;;;0.70;;
48522;SDS011;34315;50.150;11.070;2024-02-23T02:24:20;1.15;;;0.70;;
48522;SDS011;34315;50.150;11.070;2024-02-23T02:29:21;1.67;;;0.60;;
48522;SDS011;34315;50.150;11.070;2024-02-23T02:34:22;1.33;;;0.80;;
48522;SDS011;34315;50.150;11.070;2024-02-23T02:39:23;1.77;;;0.85;;
48522;SDS011;34315;50.150;11.070;2024-02-23T02:44:25;2.20;;;0.52;;
48522;SDS011;34315;50.150;11.070;2024-02-23T02:49:27;1.30;;;0.47;;
48522;SDS011;34315;50.150;11.070;2024-02-23T02:54:28;0.73;;;0.47;;
48522;SDS011;34315;50.150;11.070;2024-02-23T02:59:29;1.42;;;0.60;;
48522;SDS011;34315;50.150;11.070;2024-02-23T03:04:32;1.77;;;0.45;;
48522;SDS011;34315;50.150;11.070;2024-02-23T03:09:33;2.00;;;0.50;;
48522;SDS011;34315;50.150;11.070;2024-02-23T03:14:34;0.30;;;0.28;;
48522;SDS011;34315;50.150;11.070;2024-02-23T03:19:35;0.82;;;0.50;;
48522;SDS011;34315;50.150;11.070;2024-02-23T03:24:37;0.38;;;0.22;;
48522;SDS011;34315;50.150;11.070;2024-02-23T03:29:38;1.42;;;0.22;;
48522;SDS011;34315;50.150;11.070;2024-02-23T03:34:40;1.70;;;0.82;;
48522;SDS011;34315;50.150;11.070;2024-02-23T03:39:41;2.15;;;0.57;;
48522;SDS011;34315;50.150;11.070;2024-02-23T03:44:42;1.50;;;0.47;;
48522;SDS011;34315;50.150;11.070;2024-02-23T03:49:43;1.95;;;0.70;;
48522;SDS011;34315;50.150;11.070;2024-02-23T03:54:44;0.63;;;0.50;;
48522;SDS011;34315;50.150;11.070;2024-02-23T03:59:54;0.95;;;0.50;;
48522;SDS011;34315;50.150;11.070;2024-02-23T04:04:56;1.00;;;0.60;;
48522;SDS011;34315;50.150;11.070;2024-02-23T04:09:57;1.85;;;0.47;;
48522;SDS011;34315;50.150;11.070;2024-02-23T04:14:58;0.95;;;0.40;;
48522;SDS011;34315;50.150;11.070;2024-02-23T04:20:00;1.10;;;0.52;;
48522;SDS011;34315;50.150;11.070;2024-02-23T04:25:07;0.65;;;0.65;;
48522;SDS011;34315;50.150;11.070;2024-02-23T04:30:09;2.80;;;0.60;;
48522;SDS011;34315;50.150;11.070;2024-02-23T04:35:17;0.85;;;0.50;;
48522;SDS011;34315;50.150;11.070;2024-02-23T04:40:18;1.67;;;0.60;;
48522;SDS011;34315;50.150;11.070;2024-02-23T04:45:19;1.50;;;0.50;;
48522;SDS011;34315;50.150;11.070;2024-02-23T04:50:20;4.82;;;1.35;;
48522;SDS011;34315;50.150;11.070;2024-02-23T04:55:21;2.00;;;0.70;;
48522;SDS011;34315;50.150;11.070;2024-02-23T05:00:22;1.35;;;0.40;;
48522;SDS011;34315;50.150;11.070;2024-02-23T05:05:23;1.88;;;0.40;;
48522;SDS011;34315;50.150;11.070;2024-02-23T05:10:24;1.48;;;0.22;;
48522;SDS011;34315;50.150;11.070;2024-02-23T05:15:25;0.68;;;0.30;;
48522;SDS011;34315;50.150;11.070;2024-02-23T05:20:27;2.83;;;0.93;;
48522;SDS011;34315;50.150;11.070;2024-02-23T05:25:28;2.47;;;0.60;;
48522;SDS011;34315;50.150;11.070;2024-02-23T05:30:29;1.40;;;0.60;;
48522;SDS011;34315;50.150;11.070;2024-02-23T05:35:32;1.50;;;0.50;;
48522;SDS011;34315;50.150;11.070;2024-02-23T05:40:33;4.38;;;0.60;;
48522;SDS011;34315;50.150;11.070;2024-02-23T05:45:34;1.90;;;0.63;;
48522;SDS011;34315;50.150;11.070;2024-02-23T05:50:35;0.55;;;0.35;;
48522;SDS011;34315;50.150;11.070;2024-02-23T05:55:36;2.70;;;0.45;;
48522;SDS011;34315;50.150;11.070;2024-02-23T06:00:37;3.00;;;0.50;;
48522;SDS011;34315;50.150;11.070;2024-02-23T06:05:39;1.27;;;0.50;;
48522;SDS011;34315;50.150;11.070;2024-02-23T06:10:40;3.65;;;0.40;;
48522;SDS011;34315;50.150;11.070;2024-02-23T06:15:43;1.98;;;0.50;;
48522;SDS011;34315;50.150;11.070;2024-02-23T06:20:44;2.15;;;0.80;;
48522;SDS011;34315;50.150;11.070;2024-02-23T06:25:45;2.60;;;1.20;;
48522;SDS011;34315;50.150;11.070;2024-02-23T06:30:47;3.20;;;1.10;;
48522;SDS011;34315;50.150;11.070;2024-02-23T06:35:48;2.95;;;0.90;;
48522;SDS011;34315;50.150;11.070;2024-02-23T06:40:49;2.33;;;1.00;;
48522;SDS011;34315;50.150;11.070;2024-02-23T06:45:50;2.17;;;0.80;;
48522;SDS011;34315;50.150;11.070;2024-02-23T06:50:51;2.15;;;0.80;;
48522;SDS011;34315;50.150;11.070;2024-02-23T06:55:52;4.20;;;0.80;;
48522;SDS011;34315;50.150;11.070;2024-02-23T07:00:54;2.58;;;0.73;;
48522;SDS011;34315;50.150;11.070;2024-02-23T07:05:55;1.40;;;0.88;;
48522;SDS011;34315;50.150;11.070;2024-02-23T07:10:56;5.35;;;1.35;;
48522;SDS011;34315;50.150;11.070;2024-02-23T07:15:57;6.57;;;2.35;;
48522;SDS011;34315;50.150;11.070;2024-02-23T07:21:00;6.13;;;1.55;;
48522;SDS011;34315;50.150;11.070;2024-02-23T07:26:01;2.58;;;0.98;;
48522;SDS011;34315;50.150;11.070;2024-02-23T07:31:02;2.30;;;1.02;;
48522;SDS011;34315;50.150;11.070;2024-02-23T07:36:03;1.05;;;0.70;;
48522;SDS011;34315;50.150;11.070;2024-02-23T07:41:05;1.80;;;0.90;;
48522;SDS011;34315;50.150;11.070;2024-02-23T07:46:06;5.32;;;1.08;;
48522;SDS011;34315;50.150;11.070;2024-02-23T07:51:09;5.32;;;1.20;;
48522;SDS011;34315;50.150;11.070;2024-02-23T07:56:10;10.27;;;2.20;;
48522;SDS011;34315;50.150;11.070;2024-02-23T08:01:15;7.63;;;1.77;;
48522;SDS011;34315;50.150;11.070;2024-02-23T08:06:16;1.98;;;0.88;;
48522;SDS011;34315;50.150;11.070;2024-02-23T08:11:17;6.13;;;1.65;;
48522;SDS011;34315;50.150;11.070;2024-02-23T08:16:18;5.90;;;1.38;;
48522;SDS011;34315;50.150;11.070;2024-02-23T08:21:19;5.72;;;1.48;;
48522;SDS011;34315;50.150;11.070;2024-02-23T08:26:20;5.78;;;1.08;;
48522;SDS011;34315;50.150;11.070;2024-02-23T08:31:21;5.15;;;1.77;;
48522;SDS011;34315;50.150;11.070;2024-02-23T08:36:22;5.10;;;1.10;;
48522;SDS011;34315;50.150;11.070;2024-02-23T08:41:23;2.63;;;0.85;;
48522;SDS011;34315;50.150;11.070;2024-02-23T08:46:24;4.35;;;0.82;;
48522;SDS011;34315;50.150;11.070;2024-02-23T08:51:25;3.15;;;1.08;;
48522;SDS011;34315;50.150;11.070;2024-02-23T08:56:26;1.05;;;0.55;;
48522;SDS011;34315;50.150;11.070;2024-02-23T09:01:28;3.20;;;0.80;;
48522;SDS011;34315;50.150;11.070;2024-02-23T09:06:29;2.60;;;0.80;;
48522;SDS011;34315;50.150;11.070;2024-02-23T09:11:30;3.30;;;1.15;;
48522;SDS011;34315;50.150;11.070;2024-02-23T09:16:34;3.75;;;0.90;;
48522;SDS011;34315;50.150;11.070;2024-02-23T09:21:35;1.02;;;0.50;;
48522;SDS011;34315;50.150;11.070;2024-02-23T09:26:39;1.38;;;0.80;;
48522;SDS011;34315;50.150;11.070;2024-02-23T09:31:40;1.77;;;0.68;;
48522;SDS011;34315;50.150;11.070;2024-02-23T09:36:41;3.45;;;1.20;;
48522;SDS011;34315;50.150;11.070;2024-02-23T09:41:42;6.93;;;1.30;;
48522;SDS011;34315;50.150;11.070;2024-02-23T09:46:44;3.22;;;1.30;;
48522;SDS011;34315;50.150;11.070;2024-02-23T09:51:45;4.47;;;1.08;;
48522;SDS011;34315;50.150;11.070;2024-02-23T09:56:46;4.30;;;1.40;;
48522;SDS011;34315;50.150;11.070;2024-02-23T10:01:47;3.95;;;1.27;;
48522;SDS011;34315;50.150;11.070;2024-02-23T10:06:53;4.50;;;1.13;;
48522;SDS011;34315;50.150;11.070;2024-02-23T10:11:54;4.25;;;1.00;;
48522;SDS011;34315;50.150;11.070;2024-02-23T10:16:55;2.00;;;0.88;;
48522;SDS011;34315;50.150;11.070;2024-02-23T10:21:56;3.25;;;0.80;;
48522;SDS011;34315;50.150;11.070;2024-02-23T10:26:59;3.00;;;1.10;;
48522;SDS011;34315;50.150;11.070;2024-02-23T10:32:01;1.90;;;0.90;;
48522;SDS011;34315;50.150;11.070;2024-02-23T10:37:02;2.08;;;0.75;;
48522;SDS011;34315;50.150;11.070;2024-02-23T10:42:04;3.38;;;0.98;;
48522;SDS011;34315;50.150;11.070;2024-02-23T10:47:08;3.20;;;0.67;;
48522;SDS011;34315;50.150;11.070;2024-02-23T10:52:10;1.25;;;0.70;;
48522;SDS011;34315;50.150;11.070;2024-02-23T10:57:13;5.40;;;1.10;;
48522;SDS011;34315;50.150;11.070;2024-02-23T11:02:16;1.98;;;1.05;;
48522;SDS011;34315;50.150;11.070;2024-02-23T11:07:19;4.32;;;1.10;;
48522;SDS011;34315;50.150;11.070;2024-02-23T11:12:22;6.68;;;1.00;;
48522;SDS011;34315;50.150;11.070;2024-02-23T11:17:35;2.33;;;1.02;;
48522;SDS011;34315;50.150;11.070;2024-02-23T11:22:36;3.35;;;1.27;;
48522;SDS011;34315;50.150;11.070;2024-02-23T11:27:38;3.72;;;1.20;;
48522;SDS011;34315;50.150;11.070;2024-02-23T11:32:45;3.88;;;1.00;;
48522;SDS011;34315;50.150;11.070;2024-02-23T11:37:53;3.80;;;1.10;;
48522;SDS011;34315;50.150;11.070;2024-02-23T11:43:02;5.35;;;1.38;;
48522;SDS011;34315;50.150;11.070;2024-02-23T11:48:05;5.32;;;1.27;;
48522;SDS011;34315;50.150;11.070;2024-02-23T11:53:06;7.43;;;1.98;;
48522;SDS011;34315;50.150;11.070;2024-02-23T11:58:07;7.22;;;1.95;;
48522;SDS011;34315;50.150;11.070;2024-02-23T12:03:09;6.07;;;1.63;;
48522;SDS011;34315;50.150;11.070;2024-02-23T12:08:10;3.67;;;1.13;;
48522;SDS011;34315;50.150;11.070;2024-02-23T12:13:11;2.88;;;1.08;;
48522;SDS011;34315;50.150;11.070;2024-02-23T12:18:13;6.18;;;1.08;;
48522;SDS011;34315;50.150;11.070;2024-02-23T12:23:14;2.08;;;0.82;;
48522;SDS011;34315;50.150;11.070;2024-02-23T12:28:17;5.63;;;1.67;;
48522;SDS011;34315;50.150;11.070;2024-02-23T12:33:19;3.40;;;1.03;;
48522;SDS011;34315;50.150;11.070;2024-02-23T12:38:21;5.15;;;1.20;;
48522;SDS011;34315;50.150;11.070;2024-02-23T12:43:22;5.20;;;1.67;;
48522;SDS011;34315;50.150;11.070;2024-02-23T12:48:26;8.83;;;2.63;;
48522;SDS011;34315;50.150;11.070;2024-02-23T12:58:38;2.42;;;1.10;;
48522;SDS011;34315;50.150;11.070;2024-02-23T13:03:41;4.70;;;1.20;;
48522;SDS011;34315;50.150;11.070;2024-02-23T13:08:42;8.55;;;1.98;;
48522;SDS011;34315;50.150;11.070;2024-02-23T13:13:43;4.78;;;1.27;;
48522;SDS011;34315;50.150;11.070;2024-02-23T13:18:45;3.53;;;1.10;;
48522;SDS011;34315;50.150;11.070;2024-02-23T13:23:47;3.63;;;1.20;;
48522;SDS011;34315;50.150;11.070;2024-02-23T13:28:48;7.53;;;0.93;;
48522;SDS011;34315;50.150;11.070;2024-02-23T13:33:49;5.57;;;1.08;;
48522;SDS011;34315;50.150;11.070;2024-02-23T13:38:50;5.10;;;0.93;;
48522;SDS011;34315;50.150;11.070;2024-02-23T13:43:52;5.80;;;1.58;;
48522;SDS011;34315;50.150;11.070;2024-02-23T13:49:04;2.53;;;0.82;;
48522;SDS011;34315;50.150;11.070;2024-02-23T13:54:07;2.05;;;0.90;;
48522;SDS011;34315;50.150;11.070;2024-02-23T13:59:08;3.40;;;0.90;;
48522;SDS011;34315;50.150;11.070;2024-02-23T14:04:09;4.60;;;0.90;;
48522;SDS011;34315;50.150;11.070;2024-02-23T14:09:10;4.32;;;1.35;;
48522;SDS011;34315;50.150;11.070;2024-02-23T14:14:11;1.10;;;0.80;;
48522;SDS011;34315;50.150;11.070;2024-02-23T14:19:12;3.00;;;1.10;;
48522;SDS011;34315;50.150;11.070;2024-02-23T14:24:13;3.05;;;1.02;;
48522;SDS011;34315;50.150;11.070;2024-02-23T14:29:15;4.10;;;1.20;;
48522;SDS011;34315;50.150;11.070;2024-02-23T14:34:18;2.83;;;1.42;;
48522;SDS011;34315;50.150;11.070;2024-02-23T14:39:20;3.72;;;0.90;;
48522;SDS011;34315;50.150;11.070;2024-02-23T14:44:21;4.68;;;1.00;;
48522;SDS011;34315;50.150;11.070;2024-02-23T14:49:22;1.77;;;0.75;;
48522;SDS011;34315;50.150;11.070;2024-02-23T14:54:24;2.75;;;1.33;;
48522;SDS011;34315;50.150;11.070;2024-02-23T14:59:26;3.35;;;1.38;;
48522;SDS011;34315;50.150;11.070;2024-02-23T15:04:27;3.05;;;1.10;;
48522;SDS011;34315;50.150;11.070;2024-02-23T15:09:28;4.75;;;1.55;;
48522;SDS011;34315;50.150;11.070;2024-02-23T15:14:29;3.35;;;1.20;;
48522;SDS011;34315;50.150;11.070;2024-02-23T15:19:30;4.50;;;1.17;;
48522;SDS011;34315;50.150;11.070;2024-02-23T15:24:32;3.38;;;1.13;;
48522;SDS011;34315;50.150;11.070;2024-02-23T15:29:33;2.42;;;0.90;;
48522;SDS011;34315;50.150;11.070;2024-02-23T15:34:34;2.05;;;0.70;;
48522;SDS011;34315;50.150;11.070;2024-02-23T15:39:35;4.93;;;1.25;;
48522;SDS011;34315;50.150;11.070;2024-02-23T15:44:36;2.75;;;1.00;;
48522;SDS011;34315;50.150;11.070;2024-02-23T15:49:37;2.97;;;1.25;;
48522;SDS011;34315;50.150;11.070;2024-02-23T15:54:38;3.72;;;1.40;;
48522;SDS011;34315;50.150;11.070;2024-02-23T15:59:39;2.58;;;0.77;;
48522;SDS011;34315;50.150;11.070;2024-02-23T16:04:40;3.47;;;1.30;;
48522;SDS011;34315;50.150;11.070;2024-02-23T16:09:41;3.97;;;1.23;;
48522;SDS011;34315;50.150;11.070;2024-02-23T16:14:42;3.60;;;1.30;;
48522;SDS011;34315;50.150;11.070;2024-02-23T16:19:44;5.68;;;1.10;;
48522;SDS011;34315;50.150;11.070;2024-02-23T16:24:46;3.03;;;1.40;;
48522;SDS011;34315;50.150;11.070;2024-02-23T16:29:47;5.68;;;2.83;;
48522;SDS011;34315;50.150;11.070;2024-02-23T16:34:48;4.57;;;1.50;;
48522;SDS011;34315;50.150;11.070;2024-02-23T16:39:49;4.28;;;1.90;;
48522;SDS011;34315;50.150;11.070;2024-02-23T16:44:50;5.65;;;1.95;;
48522;SDS011;34315;50.150;11.070;2024-02-23T16:49:51;2.28;;;1.30;;
48522;SDS011;34315;50.150;11.070;2024-02-23T16:54:52;2.95;;;1.30;;
48522;SDS011;34315;50.150;11.070;2024-02-23T16:59:53;3.08;;;1.40;;
48522;SDS011;34315;50.150;11.070;2024-02-23T17:04:54;4.85;;;1.77;;
48522;SDS011;34315;50.150;11.070;2024-02-23T17:09:56;6.38;;;2.67;;
48522;SDS011;34315;50.150;11.070;2024-02-23T17:14:58;3.67;;;1.70;;
48522;SDS011;34315;50.150;11.070;2024-02-23T17:19:59;4.55;;;1.70;;
48522;SDS011;34315;50.150;11.070;2024-02-23T17:25:00;4.05;;;1.80;;
48522;SDS011;34315;50.150;11.070;2024-02-23T17:30:01;4.07;;;1.88;;
48522;SDS011;34315;50.150;11.070;2024-02-23T17:35:03;4.70;;;1.90;;
48522;SDS011;34315;50.150;11.070;2024-02-23T17:40:04;3.75;;;1.73;;
48522;SDS011;34315;50.150;11.070;2024-02-23T17:45:06;5.07;;;2.15;;
48522;SDS011;34315;50.150;11.070;2024-02-23T17:50:10;4.25;;;1.65;;
48522;SDS011;34315;50.150;11.070;2024-02-23T17:55:11;5.47;;;1.65;;
48522;SDS011;34315;50.150;11.070;2024-02-23T18:00:13;2.83;;;1.30;;
48522;SDS011;34315;50.150;11.070;2024-02-23T18:05:14;3.83;;;1.20;;
48522;SDS011;34315;50.150;11.070;2024-02-23T18:10:15;3.72;;;1.60;;
48522;SDS011;34315;50.150;11.070;2024-02-23T18:15:20;3.70;;;1.50;;
48522;SDS011;34315;50.150;11.070;2024-02-23T18:20:21;3.67;;;1.95;;
48522;SDS011;34315;50.150;11.070;2024-02-23T18:25:24;4.93;;;1.70;;
48522;SDS011;34315;50.150;11.070;2024-02-23T18:30:25;4.10;;;1.80;;
48522;SDS011;34315;50.150;11.070;2024-02-23T18:35:26;6.90;;;2.45;;
48522;SDS011;34315;50.150;11.070;2024-02-23T18:40:28;5.53;;;2.53;;
48522;SDS011;34315;50.150;11.070;2024-02-23T18:45:30;7.13;;;3.00;;
48522;SDS011;34315;50.150;11.070;2024-02-23T18:50:32;9.68;;;3.97;;
48522;SDS011;34315;50.150;11.070;2024-02-23T18:55:33;11.82;;;4.30;;
48522;SDS011;34315;50.150;11.070;2024-02-23T19:00:38;17.23;;;6.50;;
48522;SDS011;34315;50.150;11.070;2024-02-23T19:05:39;17.25;;;6.60;;
48522;SDS011;34315;50.150;11.070;2024-02-23T19:10:43;22.80;;;8.77;;
48522;SDS011;34315;50.150;11.070;2024-02-23T19:15:44;21.63;;;7.50;;
48522;SDS011;34315;50.150;11.070;2024-02-23T19:20:47;9.82;;;4.07;;
48522;SDS011;34315;50.150;11.070;2024-02-23T19:25:48;7.97;;;3.40;;
48522;SDS011;34315;50.150;11.070;2024-02-23T19:30:49;6.82;;;2.90;;
48522;SDS011;34315;50.150;11.070;2024-02-23T19:35:51;5.68;;;2.30;;
48522;SDS011;34315;50.150;11.070;2024-02-23T19:40:52;3.42;;;1.92;;
48522;SDS011;34315;50.150;11.070;2024-02-23T19:45:53;5.68;;;2.10;;
48522;SDS011;34315;50.150;11.070;2024-02-23T19:50:55;4.30;;;1.70;;
48522;SDS011;34315;50.150;11.070;2024-02-23T19:55:56;5.68;;;1.98;;
48522;SDS011;34315;50.150;11.070;2024-02-23T20:00:58;5.05;;;2.17;;
48522;SDS011;34315;50.150;11.070;2024-02-23T20:05:59;5.47;;;1.80;;
48522;SDS011;34315;50.150;11.070;2024-02-23T20:11:00;8.38;;;2.00;;
48522;SDS011;34315;50.150;11.070;2024-02-23T20:16:01;4.82;;;1.58;;
48522;SDS011;34315;50.150;11.070;2024-02-23T20:21:02;3.97;;;1.50;;
48522;SDS011;34315;50.150;11.070;2024-02-23T20:26:03;8.80;;;3.30;;
48522;SDS011;34315;50.150;11.070;2024-02-23T20:31:05;13.15;;;5.38;;
48522;SDS011;34315;50.150;11.070;2024-02-23T20:36:07;10.63;;;4.88;;
48522;SDS011;34315;50.150;11.070;2024-02-23T20:41:08;8.27;;;4.45;;
48522;SDS011;34315;50.150;11.070;2024-02-23T20:46:09;10.43;;;4.75;;
48522;SDS011;34315;50.150;11.070;2024-02-23T20:51:10;9.38;;;4.57;;
48522;SDS011;34315;50.150;11.070;2024-02-23T20:56:11;11.00;;;5.85;;
48522;SDS011;34315;50.150;11.070;2024-02-23T21:01:12;11.50;;;5.68;;
48522;SDS011;34315;50.150;11.070;2024-02-23T21:06:13;12.63;;;6.10;;
48522;SDS011;34315;50.150;11.070;2024-02-23T21:11:15;12.60;;;6.07;;
48522;SDS011;34315;50.150;11.070;2024-02-23T21:16:16;9.23;;;5.13;;
48522;SDS011;34315;50.150;11.070;2024-02-23T21:21:17;11.95;;;6.03;;
48522;SDS011;34315;50.150;11.070;2024-02-23T21:26:21;14.65;;;6.88;;
48522;SDS011;34315;50.150;11.070;2024-02-23T21:31:22;13.60;;;7.32;;
48522;SDS011;34315;50.150;11.070;2024-02-23T21:36:24;13.63;;;5.93;;
48522;SDS011;34315;50.150;11.070;2024-02-23T21:41:25;12.23;;;5.55;;
48522;SDS011;34315;50.150;11.070;2024-02-23T21:46:26;8.65;;;4.47;;
48522;SDS011;34315;50.150;11.070;2024-02-23T21:51:27;9.82;;;4.68;;
48522;SDS011;34315;50.150;11.070;2024-02-23T21:56:28;9.25;;;4.63;;
48522;SDS011;34315;50.150;11.070;2024-02-23T22:01:29;9.10;;;4.78;;
48522;SDS011;34315;50.150;11.070;2024-02-23T22:06:31;14.95;;;5.30;;
48522;SDS011;34315;50.150;11.070;2024-02-23T22:11:32;13.75;;;6.85;;
48522;SDS011;34315;50.150;11.070;2024-02-23T22:16:34;15.98;;;6.45;;
48522;SDS011;34315;50.150;11.070;2024-02-23T22:21:35;12.55;;;5.57;;
48522;SDS011;34315;50.150;11.070;2024-02-23T22:26:36;10.15;;;5.22;;
48522;SDS011;34315;50.150;11.070;2024-02-23T22:31:43;9.25;;;5.30;;
48522;SDS011;34315;50.150;11.070;2024-02-23T22:36:46;9.73;;;4.50;;
48522;SDS011;34315;50.150;11.070;2024-02-23T22:41:47;13.27;;;5.55;;
48522;SDS011;34315;50.150;11.070;2024-02-23T22:46:49;10.55;;;5.13;;
48522;SDS011;34315;50.150;11.070;2024-02-23T22:51:50;6.88;;;3.92;;
48522;SDS011;34315;50.150;11.070;2024-02-23T22:56:51;10.63;;;4.35;;
48522;SDS011;34315;50.150;11.070;2024-02-23T23:01:52;8.88;;;3.40;;
48522;SDS011;34315;50.150;11.070;2024-02-23T23:06:53;7.32;;;3.58;;
48522;SDS011;34315;50.150;11.070;2024-02-23T23:11:54;4.53;;;2.80;;
48522;SDS011;34315;50.150;11.070;2024-02-23T23:16:55;7.07;;;3.05;;
48522;SDS011;34315;50.150;11.070;2024-02-23T23:21:57;6.53;;;2.55;;
48522;SDS011;34315;50.150;11.070;2024-02-23T23:26:58;10.38;;;4.60;;
48522;SDS011;34315;50.150;11.070;2024-02-23T23:31:59;10.20;;;4.65;;
48522;SDS011;34315;50.150;11.070;2024-02-23T23:37:00;12.52;;;5.25;;
48522;SDS011;34315;50.150;11.070;2024-02-23T23:42:01;12.43;;;5.80;;
48522;SDS011;34315;50.150;11.070;2024-02-23T23:47:02;9.88;;;4.97;;
48522;SDS011;34315;50.150;11.070;2024-02-23T23:52:04;9.65;;;3.72;;
48522;SDS011;34315;50.150;11.070;2024-02-23T23:57:05;7.75;;;3.40;;
